Flight Track Log - Related Links

Times and Time Zones

All times are in EDT time to prevent confusion due to time zone crossing. See the N500HG flight status page for this flight to view local times or setup timezone preferences in your user account.


Time Position Orientation Groundspeed Altitude Reporting Facility
EDT Latitude Longitude Course Direction KTS MPH feet Rate Location/Type
Wed 05:03:07 PM 43.1694 -86.1075 132° Southeast 171 197 4,000  Level Chicago Center
Wed 05:04:09 PM 43.1650 -86.0311 95° East 192 221 5,500 1,500 Climbing Chicago Center
Wed 05:05:11 PM 43.1661 -85.9550 89° East 197 227 7,100 1,597 Climbing Chicago Center
Wed 05:06:13 PM 43.1367 -85.8953 124° Southeast 189 217 8,800 1,500 Climbing Chicago Center
Wed 05:07:00 PM 42.7246 -85.5882 136° Southeast  Level FlightAware Approximate
Wed 05:07:15 PM 43.0889 -85.8511 146° Southeast 201 231 10,200  Level Chicago Center
Wed 05:08:00 PM 42.6782 -85.5256 132° Southeast  Level FlightAware Approximate
Wed 05:08:17 PM 43.0436 -85.7947 138° Southeast 214 246 11,700  Level Chicago Center
Wed 05:09:19 PM 42.9989 -85.7378 137° Southeast 217 250 13,100 1,355 Climbing Chicago Center
Wed 05:10:21 PM 42.9547 -85.6758 134° Southeast 225 259 14,500 912 Climbing Chicago Center
Wed 05:11:24 PM 42.8972 -85.5939 134° Southeast 252 290 15,000 240 Climbing Chicago Center
Wed 05:12:26 PM 42.8419 -85.5167 134° Southeast 281 323 15,000  Level Chicago Center
Wed 05:13:28 PM 42.7844 -85.4381 135° Southeast 289 333 15,000  Level Chicago Center
Wed 05:14:30 PM 42.7275 -85.3567 134° Southeast 295 339 15,000  Level Chicago Center
Wed 05:15:32 PM 42.6697 -85.2767 134° Southeast 296 341 15,000  Level Chicago Center
Wed 05:16:34 PM 42.6125 -85.1961 134° Southeast 296 341 15,000  Level Chicago Center
Wed 05:17:36 PM 42.5439 -85.0997 134° Southeast 296 341 15,000  Level Chicago Center
Wed 05:18:38 PM 42.4847 -85.0250 137° Southeast 290 334 15,000  Level Chicago Center
Wed 05:19:40 PM 42.4233 -84.9608 142° Southeast 278 320 15,000  Level Chicago Center
Wed 05:20:42 PM 42.3633 -84.8953 141° Southeast 277 319 15,000  Level Chicago Center
Wed 05:21:44 PM 42.3058 -84.8264 138° Southeast 275 316 15,000  Level Chicago Center
Wed 05:22:46 PM 42.2483 -84.7592 139° Southeast 275 316 15,000  Level Chicago Center
Wed 05:23:48 PM 42.1814 -84.6756 137° Southeast 274 315 15,000  Level Chicago Center
Wed 05:24:50 PM 42.1272 -84.6000 134° Southeast 279 321 15,000  Level Chicago Center
Wed 05:25:52 PM 42.0700 -84.5306 138° Southeast 277 319 15,000 -290 Level Chicago Center
Wed 05:26:54 PM 42.0111 -84.4636 140° Southeast 277 319 14,400 -774 Descending Chicago Center
Wed 05:27:56 PM 41.9528 -84.3942 138° Southeast 286 329 13,400 -1,091 Descending Chicago Center
Wed 05:28:44 PM 41.9028 -84.3358 139° Southeast 282 325 12,400 -2,111 Descending Cleveland Center
Wed 05:29:44 PM 41.8533 -84.2519 128° Southeast 282 325 9,600 -2,800 Descending Cleveland Center

Login

Don't have an account? Register now (free) for customized features, flight alerts, and more!